Time;durP1;ratioP1;P1;durP2;ratioP2;P2;SDS_P1;SDS_P2;PMS_P1;PMS_P2;Temp;Humidity;BMP_temperature;BMP_pressure;BME280_temperature;BME280_humidity;BME280_pressure;Samples;Min_cycle;Max_cycle;Signal;HPM_P1;HPM_P2
2023/10/27 00:01:09;;;;;;;12.48;9.25;;;11.50;99.90;;;;;;5068530;28;20045;-62
2023/10/27 00:03:35;;;;;;;13.27;8.75;;;11.50;99.90;;;;;;5068447;28;20515;-62
2023/10/27 00:06:01;;;;;;;13.02;9.73;;;11.50;99.90;;;;;;5068860;28;20475;-62
2023/10/27 00:08:27;;;;;;;12.07;8.73;;;11.50;99.90;;;;;;5068782;28;20040;-62
2023/10/27 00:10:53;;;;;;;10.13;8.77;;;11.50;99.90;;;;;;5069610;28;20294;-63
2023/10/27 00:13:20;;;;;;;12.60;8.85;;;11.50;99.90;;;;;;5051741;28;20091;-63
2023/10/27 00:15:46;;;;;;;12.35;8.95;;;11.50;99.90;;;;;;5064499;28;20044;-63
2023/10/27 00:18:13;;;;;;;11.27;9.48;;;11.50;99.90;;;;;;5063393;28;20090;-62
2023/10/27 00:20:38;;;;;;;12.57;9.32;;;11.50;99.90;;;;;;5068802;28;20496;-62
2023/10/27 00:23:05;;;;;;;12.65;8.43;;;11.50;99.90;;;;;;5069251;28;20101;-64
2023/10/27 00:25:31;;;;;;;11.65;8.77;;;11.50;99.90;;;;;;5066703;28;20048;-62
2023/10/27 00:27:56;;;;;;;18.33;8.50;;;11.40;99.90;;;;;;5063110;28;20450;-61
2023/10/27 00:30:22;;;;;;;11.43;8.95;;;11.40;99.90;;;;;;5049172;28;20032;-62
2023/10/27 00:32:48;;;;;;;14.18;9.43;;;11.50;99.90;;;;;;5068148;28;20044;-61
2023/10/27 00:35:14;;;;;;;12.80;8.80;;;11.40;99.90;;;;;;5068536;28;20040;-62
2023/10/27 00:37:40;;;;;;;13.55;9.98;;;11.40;99.90;;;;;;5068236;28;20089;-61
2023/10/27 00:40:07;;;;;;;11.73;8.90;;;11.40;99.90;;;;;;5068593;28;20105;-62
2023/10/27 00:42:33;;;;;;;12.00;8.88;;;11.40;99.90;;;;;;5067913;28;20045;-62
2023/10/27 00:44:59;;;;;;;9.48;7.65;;;11.50;99.90;;;;;;5067159;28;20497;-63
2023/10/27 00:47:26;;;;;;;10.85;7.82;;;11.40;99.90;;;;;;5062857;28;20040;-63
2023/10/27 00:49:54;;;;;;;11.43;8.27;;;11.40;99.90;;;;;;5059847;28;20075;-62
2023/10/27 00:52:22;;;;;;;10.13;7.45;;;11.40;99.90;;;;;;5068359;28;20416;-62
2023/10/27 00:54:49;;;;;;;11.45;8.45;;;11.40;99.90;;;;;;5065846;28;20124;-62
2023/10/27 00:57:16;;;;;;;11.57;8.38;;;11.40;99.90;;;;;;5068553;28;20527;-62
2023/10/27 00:59:42;;;;;;;11.68;8.35;;;11.40;99.90;;;;;;5063801;28;20055;-62
2023/10/27 01:02:09;;;;;;;13.85;9.23;;;11.40;99.90;;;;;;5067820;28;20398;-62
2023/10/27 01:04:36;;;;;;;11.23;8.60;;;11.40;99.90;;;;;;5049227;28;20108;-62
2023/10/27 01:07:03;;;;;;;10.20;7.82;;;11.40;99.90;;;;;;5068754;28;20044;-61
2023/10/27 01:09:29;;;;;;;11.05;8.00;;;11.40;99.90;;;;;;5064962;28;20099;-64
2023/10/27 01:11:55;;;;;;;10.00;7.63;;;11.40;99.90;;;;;;5066773;28;20032;-65
2023/10/27 01:14:22;;;;;;;10.55;7.53;;;11.40;99.90;;;;;;5063021;28;20044;-64
2023/10/27 01:16:48;;;;;;;14.27;8.60;;;11.40;99.90;;;;;;5051399;28;20411;-62
2023/10/27 01:19:15;;;;;;;10.48;7.95;;;11.40;99.90;;;;;;5066004;28;20040;-62
2023/10/27 01:21:41;;;;;;;11.48;8.40;;;11.40;99.90;;;;;;5068813;28;20136;-63
2023/10/27 01:24:07;;;;;;;12.45;8.45;;;11.40;99.90;;;;;;5066816;28;20051;-63
2023/10/27 01:26:33;;;;;;;11.80;7.97;;;11.40;99.90;;;;;;5065819;28;20387;-63
2023/10/27 01:28:59;;;;;;;12.98;8.32;;;11.30;99.90;;;;;;5056555;28;20037;-63
2023/10/27 01:31:25;;;;;;;11.02;8.18;;;11.40;99.90;;;;;;5028624;28;20126;-62
2023/10/27 01:33:51;;;;;;;12.63;8.23;;;11.30;99.90;;;;;;5067451;28;20204;-62
2023/10/27 01:36:17;;;;;;;10.52;7.90;;;11.40;99.90;;;;;;5068980;28;20068;-63
2023/10/27 01:38:43;;;;;;;11.45;8.63;;;11.30;99.90;;;;;;5068415;28;20555;-63
2023/10/27 01:41:08;;;;;;;10.18;7.78;;;11.30;99.90;;;;;;5063546;28;20048;-63
2023/10/27 01:43:34;;;;;;;10.63;7.72;;;11.30;99.90;;;;;;5047035;28;20214;-63
2023/10/27 01:46:00;;;;;;;12.00;8.20;;;11.30;99.90;;;;;;5070690;28;20040;-62
2023/10/27 01:48:26;;;;;;;11.70;8.50;;;11.40;99.90;;;;;;5040629;28;20037;-62
2023/10/27 01:50:52;;;;;;;9.82;7.07;;;;;;;;;;5061670;28;20051;-63
2023/10/27 01:53:18;;;;;;;9.85;7.20;;;;;;;;;;5053947;28;20199;-63
2023/10/27 01:55:44;;;;;;;10.63;6.80;;;;;;;;;;5070838;28;20040;-62
2023/10/27 01:58:10;;;;;;;11.93;7.28;;;;;;;;;;5049849;28;20076;-63
2023/10/27 02:00:36;;;;;;;8.45;6.82;;;;;;;;;;5049688;28;20123;-62
2023/10/27 02:03:02;;;;;;;12.73;8.93;;;;;;;;;;5054042;28;20051;-63
2023/10/27 02:05:29;;;;;;;9.43;7.07;;;;;;;;;;5072783;28;20036;-62
2023/10/27 02:07:55;;;;;;;8.30;6.55;;;;;;;;;;5058043;28;20101;-62
2023/10/27 02:10:21;;;;;;;10.77;7.68;;;;;;;;;;5070339;28;20041;-62
2023/10/27 02:12:47;;;;;;;9.30;7.28;;;;;;;;;;5073236;28;20039;-62
2023/10/27 02:15:13;;;;;;;8.25;6.20;;;;;;;;;;5066331;28;20489;-62
2023/10/27 02:17:39;;;;;;;11.10;7.20;;;;;;;;;;5062407;28;20037;-63
2023/10/27 02:20:06;;;;;;;8.73;6.07;;;;;;;;;;5050642;28;20036;-64
2023/10/27 02:22:32;;;;;;;8.77;7.18;;;;;;;;;;5069174;28;20356;-63
2023/10/27 02:24:59;;;;;;;8.68;6.38;;;;;;;;;;5064829;28;20412;-62
2023/10/27 02:27:25;;;;;;;11.80;7.55;;;;;;;;;;5068481;28;20032;-64
2023/10/27 02:29:51;;;;;;;9.55;7.00;;;;;;;;;;5048677;28;20039;-61
2023/10/27 02:32:18;;;;;;;11.02;6.88;;;;;;;;;;5067779;28;20056;-62
2023/10/27 02:34:44;;;;;;;10.50;7.22;;;;;;;;;;5062587;28;20033;-61
2023/10/27 02:37:10;;;;;;;8.15;6.00;;;;;;;;;;5067413;28;20032;-62
2023/10/27 02:39:37;;;;;;;11.25;7.32;;;;;;;;;;5052727;28;20052;-62
2023/10/27 02:42:03;;;;;;;10.00;6.50;;;;;;;;;;5070679;28;20047;-62
2023/10/27 02:44:29;;;;;;;7.40;5.90;;;;;;;;;;5069506;28;20106;-62
2023/10/27 02:46:56;;;;;;;11.25;6.93;;;;;;;;;;5066243;28;20380;-62
2023/10/27 02:49:22;;;;;;;8.70;7.20;;;;;;;;;;5067254;28;20045;-63
2023/10/27 02:51:48;;;;;;;9.88;6.57;;;;;;;;;;5065337;28;20052;-63
2023/10/27 02:54:14;;;;;;;11.00;7.05;;;;;;;;;;5066426;28;20040;-63
2023/10/27 02:56:40;;;;;;;9.10;6.57;;;;;;;;;;5069807;28;20067;-62
2023/10/27 02:59:08;;;;;;;10.05;6.25;;;;;;;;;;5068768;28;20037;-62
2023/10/27 03:01:34;;;;;;;8.73;6.88;;;;;;;;;;5069091;28;20523;-62
2023/10/27 03:04:01;;;;;;;8.13;5.85;;;;;;;;;;5069255;28;20260;-62
2023/10/27 03:06:27;;;;;;;9.15;5.97;;;;;;;;;;5056595;28;20046;-61
2023/10/27 03:08:53;;;;;;;9.63;6.53;;;11.30;99.90;;;;;;5074381;28;20033;-62
2023/10/27 03:11:19;;;;;;;6.90;5.55;;;;;;;;;;5066840;28;20044;-62
2023/10/27 03:13:45;;;;;;;9.23;5.65;;;;;;;;;;5060634;28;20415;-62
2023/10/27 03:16:16;;;;;;;8.70;6.18;;;;;;;;;;5067550;28;20065;-62
2023/10/27 03:18:42;;;;;;;9.43;5.90;;;;;;;;;;5053509;28;20048;-63
2023/10/27 03:21:09;;;;;;;8.15;6.05;;;;;;;;;;5066989;28;20044;-63
2023/10/27 03:23:35;;;;;;;8.18;5.60;;;;;;;;;;5070236;28;20036;-62
2023/10/27 03:26:01;;;;;;;7.47;5.53;;;;;;;;;;5065960;28;20492;-63
2023/10/27 03:28:27;;;;;;;7.00;5.40;;;;;;;;;;5067836;28;20079;-63
2023/10/27 03:30:53;;;;;;;9.55;6.53;;;;;;;;;;5069161;28;20445;-62
2023/10/27 03:33:19;;;;;;;7.65;5.65;;;;;;;;;;5069271;28;20040;-62
2023/10/27 03:35:46;;;;;;;8.18;5.25;;;;;;;;;;5064235;28;20036;-63
2023/10/27 03:38:13;;;;;;;8.20;5.78;;;;;;;;;;5069123;28;20044;-64
2023/10/27 03:40:40;;;;;;;6.97;5.35;;;;;;;;;;5073545;28;20052;-63
2023/10/27 03:43:06;;;;;;;9.02;6.45;;;;;;;;;;5074178;28;20203;-62
2023/10/27 03:45:34;;;;;;;7.03;6.00;;;;;;;;;;5067955;28;20251;-62
2023/10/27 03:48:00;;;;;;;7.43;5.88;;;;;;;;;;5065309;28;20044;-63
2023/10/27 03:50:26;;;;;;;8.07;5.82;;;;;;;;;;5068715;28;20037;-63
2023/10/27 03:52:54;;;;;;;9.60;5.53;;;;;;;;;;5065914;28;20072;-63
2023/10/27 03:55:20;;;;;;;9.38;6.20;;;;;;;;;;5064974;28;20469;-61
2023/10/27 03:57:46;;;;;;;8.60;6.90;;;;;;;;;;5061244;28;20036;-62
2023/10/27 04:00:13;;;;;;;8.90;6.18;;;;;;;;;;5068020;28;20129;-62
2023/10/27 04:02:40;;;;;;;7.68;6.22;;;;;;;;;;5068191;28;20439;-61
2023/10/27 04:05:06;;;;;;;8.77;6.85;;;;;;;;;;5068084;28;20042;-62
2023/10/27 04:07:33;;;;;;;12.23;6.65;;;;;;;;;;5070628;28;20113;-61
2023/10/27 04:09:59;;;;;;;8.13;6.03;;;;;;;;;;5071306;28;20049;-62
2023/10/27 04:12:25;;;;;;;8.05;6.38;;;;;;;;;;5069364;28;20363;-62
2023/10/27 04:14:51;;;;;;;11.35;6.57;;;;;;;;;;5065385;28;20043;-63
2023/10/27 04:17:17;;;;;;;9.07;6.63;;;;;;;;;;5051093;28;20037;-63
2023/10/27 04:19:43;;;;;;;10.30;6.82;;;;;;;;;;5061924;28;20040;-63
2023/10/27 04:22:10;;;;;;;13.07;7.38;;;;;;;;;;5066587;28;20044;-62
2023/10/27 04:24:37;;;;;;;10.85;6.50;;;;;;;;;;5068637;28;20048;-62
2023/10/27 04:27:03;;;;;;;10.00;6.40;;;;;;;;;;5066956;28;20490;-62
2023/10/27 04:29:29;;;;;;;11.80;7.75;;;;;;;;;;5067054;28;20492;-63
2023/10/27 04:31:55;;;;;;;9.38;6.85;;;;;;;;;;5067641;28;20078;-63
2023/10/27 04:34:21;;;;;;;10.40;6.32;;;;;;;;;;5065622;28;20503;-63
2023/10/27 04:36:48;;;;;;;11.73;7.60;;;;;;;;;;5068741;28;20089;-63
2023/10/27 04:39:15;;;;;;;12.02;7.90;;;;;;;;;;5068765;28;20037;-63
2023/10/27 04:41:41;;;;;;;7.50;6.53;;;;;;;;;;5050231;28;20036;-63
2023/10/27 04:44:08;;;;;;;9.25;6.82;;;;;;;;;;5046680;28;20131;-62
2023/10/27 04:46:34;;;;;;;8.95;6.70;;;;;;;;;;5064251;28;20037;-62
2023/10/27 04:49:00;;;;;;;7.05;5.78;;;;;;;;;;5066533;28;20093;-62
2023/10/27 04:51:27;;;;;;;8.90;5.55;;;;;;;;;;5063640;28;20039;-62
2023/10/27 04:53:53;;;;;;;8.50;5.97;;;;;;;;;;5062225;28;20048;-62
2023/10/27 04:56:19;;;;;;;9.73;6.68;;;;;;;;;;5059330;28;20342;-63
2023/10/27 04:58:46;;;;;;;9.95;7.07;;;;;;;;;;5060998;28;20048;-63
2023/10/27 05:01:13;;;;;;;10.23;6.57;;;;;;;;;;5064333;28;20044;-63
2023/10/27 05:03:39;;;;;;;9.10;6.32;;;;;;;;;;5075903;28;20082;-62
2023/10/27 05:06:09;;;;;;;10.18;6.50;;;;;;;;;;5064266;28;20037;-62
2023/10/27 05:08:35;;;;;;;7.53;5.97;;;;;;;;;;5068465;28;20040;-61
2023/10/27 05:11:01;;;;;;;10.85;5.65;;;;;;;;;;5067505;28;20044;-63
2023/10/27 05:13:27;;;;;;;8.50;5.68;;;;;;;;;;5067577;28;20495;-62
2023/10/27 05:15:56;;;;;;;8.10;5.45;;;;;;;;;;5046262;28;20033;-62
2023/10/27 05:18:22;;;;;;;7.82;5.75;;;;;;;;;;5068823;28;20041;-62
2023/10/27 05:20:48;;;;;;;7.38;5.88;;;;;;;;;;5067445;28;20059;-62
2023/10/27 05:23:14;;;;;;;7.90;5.47;;;;;;;;;;5071346;28;20029;-62
2023/10/27 05:25:41;;;;;;;7.78;5.85;;;;;;;;;;5071395;28;20512;-63
2023/10/27 05:28:08;;;;;;;7.85;5.78;;;;;;;;;;5070637;28;20503;-62
2023/10/27 05:30:34;;;;;;;9.27;5.82;;;;;;;;;;5072768;28;20043;-62
2023/10/27 05:33:01;;;;;;;7.15;6.00;;;;;;;;;;5068186;28;20174;-62
2023/10/27 05:35:27;;;;;;;8.77;5.97;;;;;;;;;;5065689;28;20067;-62
2023/10/27 05:37:53;;;;;;;6.68;5.28;;;;;;;;;;5065065;28;20037;-62
2023/10/27 05:40:20;;;;;;;9.75;6.10;;;;;;;;;;5068017;28;20123;-62
2023/10/27 05:42:46;;;;;;;7.03;5.15;;;;;;;;;;5068947;28;20035;-62
2023/10/27 05:45:12;;;;;;;7.65;5.63;;;;;;;;;;5067679;28;20373;-62
2023/10/27 05:47:41;;;;;;;9.43;5.50;;;;;;;;;;5066516;28;20086;-63
2023/10/27 05:50:08;;;;;;;9.02;6.18;;;;;;;;;;5064500;28;20086;-62
2023/10/27 05:52:34;;;;;;;7.90;5.25;;;;;;;;;;5067654;28;20071;-62
2023/10/27 05:55:00;;;;;;;6.57;4.90;;;;;;;;;;5069232;28;20044;-62
2023/10/27 05:57:26;;;;;;;6.75;5.00;;;;;;;;;;5052099;28;20040;-62
2023/10/27 05:59:53;;;;;;;8.77;5.68;;;;;;;;;;5068845;28;20044;-62
2023/10/27 06:02:20;;;;;;;8.57;5.45;;;;;;;;;;5069341;28;20347;-62
2023/10/27 06:04:46;;;;;;;7.15;5.18;;;;;;;;;;5051354;28;20037;-62
2023/10/27 06:07:15;;;;;;;7.45;5.80;;;;;;;;;;5070316;28;20072;-63
2023/10/27 06:09:41;;;;;;;7.75;5.45;;;;;;;;;;5068071;28;20032;-63
2023/10/27 06:12:09;;;;;;;8.50;5.63;;;;;;;;;;5068864;28;20498;-62
2023/10/27 06:14:35;;;;;;;9.05;6.20;;;;;;;;;;5051807;28;20662;-61
2023/10/27 06:17:01;;;;;;;8.10;5.85;;;;;;;;;;5065046;28;20518;-61
2023/10/27 06:19:30;;;;;;;8.35;5.78;;;;;;;;;;5068544;28;20075;-61
2023/10/27 06:22:03;;;;;;;8.27;5.30;;;;;;;;;;5069708;28;20539;-62
2023/10/27 06:24:29;;;;;;;10.23;5.18;;;;;;;;;;5052373;28;20104;-61
2023/10/27 06:26:56;;;;;;;7.13;5.18;;;;;;;;;;5070447;28;20127;-62
2023/10/27 06:29:22;;;;;;;7.45;5.75;;;;;;;;;;5066583;28;20138;-62
2023/10/27 06:31:48;;;;;;;7.03;4.72;;;;;;;;;;5069989;28;20048;-62
2023/10/27 06:34:14;;;;;;;6.65;4.70;;;;;;;;;;5070513;28;20500;-62
2023/10/27 06:36:40;;;;;;;6.72;4.82;;;;;;;;;;5070869;28;20050;-62
2023/10/27 06:39:07;;;;;;;7.10;5.53;;;;;;;;;;5061518;28;20083;-63
2023/10/27 06:41:34;;;;;;;6.50;4.82;;;;;;;;;;5052276;28;20645;-62
2023/10/27 06:44:01;;;;;;;6.68;4.65;;;;;;;;;;5049674;28;20145;-61
2023/10/27 06:46:27;;;;;;;8.02;4.93;;;;;;;;;;5065343;28;20064;-61
2023/10/27 06:48:53;;;;;;;7.75;4.78;;;;;;;;;;5063850;28;20071;-62
2023/10/27 06:51:19;;;;;;;7.93;4.97;;;;;;;;;;5049755;28;20471;-62
2023/10/27 06:53:46;;;;;;;6.75;4.70;;;;;;;;;;5070010;28;20115;-62
2023/10/27 06:56:12;;;;;;;7.53;4.75;;;;;;;;;;5066836;28;20527;-63
2023/10/27 06:58:38;;;;;;;5.30;4.15;;;;;;;;;;5044577;28;20040;-63
2023/10/27 07:01:07;;;;;;;7.50;4.85;;;;;;;;;;5063795;28;20052;-63
2023/10/27 07:03:35;;;;;;;8.05;4.43;;;;;;;;;;5037684;28;20496;-63
2023/10/27 07:06:03;;;;;;;8.38;5.22;;;;;;;;;;5041363;28;20395;-62
2023/10/27 07:08:30;;;;;;;7.68;4.53;;;;;;;;;;5020537;28;20048;-63
2023/10/27 07:10:59;;;;;;;6.88;4.78;;;;;;;;;;5060472;28;20530;-63
2023/10/27 07:13:30;;;;;;;6.05;4.20;;;;;;;;;;5062713;28;20047;-63
2023/10/27 07:15:56;;;;;;;6.63;5.03;;;;;;;;;;5065964;28;20047;-62
2023/10/27 07:18:22;;;;;;;6.25;4.18;;;;;;;;;;5068668;28;20044;-62
2023/10/27 07:20:48;;;;;;;8.13;5.13;;;;;;;;;;5051311;28;20047;-62
2023/10/27 07:23:16;;;;;;;6.97;5.07;;;;;;;;;;5064931;28;20040;-62
2023/10/27 07:25:44;;;;;;;5.85;4.57;;;;;;;;;;5061996;28;20138;-62
2023/10/27 07:28:10;;;;;;;5.85;4.32;;;;;;;;;;5058250;28;20127;-63
2023/10/27 07:30:36;;;;;;;8.38;4.80;;;;;;;;;;5059423;28;20560;-63
2023/10/27 07:33:03;;;;;;;5.90;3.88;;;;;;;;;;5068737;28;20080;-61
2023/10/27 07:35:31;;;;;;;6.97;4.10;;;;;;;;;;5064877;28;20409;-62
2023/10/27 07:37:58;;;;;;;6.30;4.20;;;;;;;;;;5067729;28;20053;-63
2023/10/27 07:40:24;;;;;;;6.85;4.80;;;;;;;;;;5062615;28;20047;-62
2023/10/27 07:42:50;;;;;;;5.95;4.35;;;;;;;;;;5069128;28;20036;-63
2023/10/27 07:45:16;;;;;;;6.68;4.85;;;;;;;;;;5048996;28;20115;-62
2023/10/27 07:47:43;;;;;;;6.85;4.70;;;;;;;;;;5064242;28;20550;-62
2023/10/27 07:50:10;;;;;;;6.15;4.15;;;;;;;;;;5064806;28;20040;-61
2023/10/27 07:52:37;;;;;;;6.57;4.70;;;;;;;;;;5059448;28;20052;-62
2023/10/27 07:55:05;;;;;;;6.65;4.45;;;;;;;;;;5064142;28;20051;-62
2023/10/27 07:57:32;;;;;;;5.47;3.85;;;;;;;;;;5064913;28;20036;-62
2023/10/27 07:59:58;;;;;;;4.80;3.95;;;;;;;;;;5063278;28;20040;-62
2023/10/27 08:02:24;;;;;;;6.97;4.35;;;;;;;;;;5064479;28;20098;-62
2023/10/27 08:04:50;;;;;;;7.07;4.35;;;;;;;;;;5063560;28;20036;-62
2023/10/27 08:07:16;;;;;;;6.45;4.15;;;;;;;;;;5067840;28;20370;-63
2023/10/27 08:09:43;;;;;;;6.20;4.65;;;;;;;;;;5053802;28;20126;-63
2023/10/27 08:12:09;;;;;;;7.03;3.95;;;;;;;;;;5040121;28;20052;-62
2023/10/27 08:14:35;;;;;;;5.85;4.25;;;;;;;;;;5066334;28;20044;-62
2023/10/27 08:17:02;;;;;;;8.13;4.60;;;;;;;;;;5067129;28;20120;-62
2023/10/27 08:19:28;;;;;;;5.85;3.67;;;;;;;;;;5063017;28;20037;-62
2023/10/27 08:21:54;;;;;;;5.43;3.85;;;;;;;;;;5064936;28;20136;-62
2023/10/27 08:24:20;;;;;;;6.90;4.78;;;;;;;;;;5066713;28;20059;-62
2023/10/27 08:26:46;;;;;;;5.63;3.88;;;;;;;;;;5060522;28;20020;-62
2023/10/27 08:29:12;;;;;;;7.43;4.75;;;;;;;;;;5063692;28;20116;-62
2023/10/27 08:31:38;;;;;;;7.53;4.05;;;;;;;;;;5044867;28;20073;-62
2023/10/27 08:34:06;;;;;;;5.57;3.67;;;;;;;;;;5048844;28;20052;-62
2023/10/27 08:36:32;;;;;;;6.22;4.20;;;;;;;;;;5064272;28;20044;-62
2023/10/27 08:38:59;;;;;;;6.10;4.72;;;;;;;;;;5038578;28;20076;-63
2023/10/27 08:41:26;;;;;;;5.80;3.67;;;;;;;;;;5065063;28;20483;-61
2023/10/27 08:43:55;;;;;;;5.75;3.90;;;;;;;;;;5066253;28;20036;-63
2023/10/27 08:46:22;;;;;;;4.88;3.25;;;;;;;;;;5066285;28;20120;-63
2023/10/27 08:48:48;;;;;;;6.32;4.65;;;;;;;;;;5063123;28;20213;-62
2023/10/27 08:51:15;;;;;;;6.95;4.47;;;;;;;;;;5063439;28;20539;-61
2023/10/27 08:53:42;;;;;;;5.40;4.35;;;;;;;;;;5066284;28;20407;-63
2023/10/27 08:56:12;;;;;;;4.35;3.38;;;;;;;;;;5065993;28;20048;-63
2023/10/27 08:58:39;;;;;;;5.90;4.38;;;;;;;;;;5065093;28;20502;-62
2023/10/27 09:01:05;;;;;;;5.97;4.05;;;;;;;;;;5053230;28;20041;-62
2023/10/27 09:03:31;;;;;;;6.30;4.28;;;;;;;;;;5051863;28;20043;-62
2023/10/27 09:05:58;;;;;;;4.57;3.85;;;;;;;;;;5049912;28;20476;-62
2023/10/27 09:08:24;;;;;;;6.38;4.00;;;;;;;;;;5069540;28;20048;-63
2023/10/27 09:10:50;;;;;;;6.35;4.60;;;;;;;;;;5069989;28;20384;-62
2023/10/27 09:13:23;;;;;;;7.40;4.47;;;;;;;;;;5072207;28;20159;-62
2023/10/27 09:15:50;;;;;;;5.25;4.18;;;;;;;;;;5067069;28;20055;-63
2023/10/27 09:18:16;;;;;;;7.20;4.95;;;;;;;;;;5067747;28;20052;-63
2023/10/27 09:20:48;;;;;;;8.13;3.78;;;;;;;;;;5066713;28;20037;-63
2023/10/27 09:23:14;;;;;;;6.55;4.30;;;;;;;;;;5069286;28;20039;-63
2023/10/27 09:25:40;;;;;;;5.93;4.82;;;;;;;;;;5053201;28;20044;-63
2023/10/27 09:28:06;;;;;;;6.15;4.28;;;;;;;;;;5064606;28;20122;-63
2023/10/27 09:30:34;;;;;;;6.35;4.07;;;;;;;;;;5070237;28;20032;-63
2023/10/27 09:33:16;;;;;;;6.15;4.47;;;;;;;;;;5068723;28;20412;-63
2023/10/27 09:35:44;;;;;;;7.43;5.10;;;;;;;;;;5063587;28;20116;-61
2023/10/27 09:38:12;;;;;;;5.60;4.20;;;;;;;;;;5064417;28;20059;-62
2023/10/27 09:40:38;;;;;;;5.57;3.88;;;;;;;;;;5067480;28;20110;-62
2023/10/27 09:43:08;;;;;;;6.20;4.20;;;;;;;;;;5069091;28;20136;-63
2023/10/27 09:45:36;;;;;;;5.10;3.65;;;;;;;;;;5068174;28;20291;-63
2023/10/27 09:48:02;;;;;;;6.22;4.25;;;;;;;;;;5065125;28;20040;-62
2023/10/27 09:50:29;;;;;;;6.22;5.15;;;;;;;;;;5066532;28;20037;-62
2023/10/27 09:53:00;;;;;;;5.88;4.13;;;;;;;;;;5064843;28;20340;-62
2023/10/27 09:55:29;;;;;;;6.40;3.88;;;;;;;;;;5066835;28;20068;-62
2023/10/27 09:57:55;;;;;;;5.18;3.80;;;;;;;;;;5066318;28;20562;-62
2023/10/27 10:00:25;;;;;;;5.72;4.15;;;;;;;;;;5065898;28;20098;-61
2023/10/27 10:02:51;;;;;;;5.40;3.10;;;;;;;;;;5073831;28;20048;-62
2023/10/27 10:05:18;;;;;;;6.40;4.22;;;;;;;;;;5069547;28;20341;-62
2023/10/27 10:07:44;;;;;;;7.13;4.18;;;;;;;;;;5051419;28;20087;-62
2023/10/27 10:10:29;;;;;;;5.57;3.65;;;;;;;;;;5050648;28;20033;-62
2023/10/27 10:13:09;;;;;;;6.95;4.70;;;;;;;;;;5064545;28;20093;-62
2023/10/27 10:15:36;;;;;;;4.93;3.30;;;;;;;;;;5065840;28;20047;-62
2023/10/27 10:18:04;;;;;;;5.05;3.97;;;;;;;;;;5067154;28;20139;-62
2023/10/27 10:20:47;;;;;;;5.50;4.00;;;;;;;;;;5066396;28;20151;-63
2023/10/27 10:23:14;;;;;;;6.07;4.45;;;;;;;;;;5065270;28;20468;-62
2023/10/27 10:25:59;;;;;;;5.43;3.70;;;;;;;;;;5064058;28;20150;-61
2023/10/27 10:28:29;;;;;;;5.95;4.03;;;;;;;;;;5062811;28;20356;-62
2023/10/27 10:31:11;;;;;;;5.57;3.67;;;;;;;;;;5061775;28;20090;-62
2023/10/27 10:33:48;;;;;;;5.70;3.83;;;;;;;;;;5058421;28;20068;-62
2023/10/27 10:36:14;;;;;;;6.35;4.22;;;;;;;;;;5049498;28;20055;-62
2023/10/27 10:38:50;;;;;;;11.40;6.72;;;11.20;99.90;;;;;;5050354;28;20055;-63
2023/10/27 10:41:19;;;;;;;5.60;4.38;;;12.20;99.90;;;;;;5068260;28;20499;-62
2023/10/27 10:44:06;;;;;;;7.20;4.82;;;12.10;99.90;;;;;;5049862;28;20101;-62
2023/10/27 10:46:32;;;;;;;6.90;4.38;;;12.20;99.90;;;;;;5067699;28;20495;-61
2023/10/27 10:48:57;;;;;;;6.13;4.40;;;12.20;99.90;;;;;;5056488;28;20044;-62
2023/10/27 10:51:30;;;;;;;6.38;4.72;;;12.20;99.90;;;;;;5048651;28;20056;-63
2023/10/27 10:53:56;;;;;;;6.13;4.13;;;12.20;99.90;;;;;;5075372;28;20055;-63
2023/10/27 10:56:25;;;;;;;5.72;4.25;;;12.20;99.90;;;;;;5065907;28;20056;-62
2023/10/27 10:58:51;;;;;;;8.00;4.53;;;12.20;99.90;;;;;;5050152;28;20044;-63
2023/10/27 11:01:18;;;;;;;6.43;4.18;;;12.20;99.90;;;;;;5068002;28;20055;-63
2023/10/27 11:03:54;;;;;;;5.97;4.25;;;12.30;99.90;;;;;;5067665;28;20060;-62
2023/10/27 11:06:22;;;;;;;5.93;4.30;;;12.30;99.90;;;;;;5063067;28;20032;-63
2023/10/27 11:08:48;;;;;;;4.65;3.90;;;12.30;99.90;;;;;;5074422;28;20079;-62
2023/10/27 11:11:14;;;;;;;5.93;3.55;;;12.30;99.90;;;;;;5031653;28;20189;-63
2023/10/27 11:13:48;;;;;;;5.60;4.47;;;12.30;99.90;;;;;;5067060;28;20097;-63
2023/10/27 11:16:18;;;;;;;5.60;4.65;;;12.30;99.90;;;;;;5040628;28;20041;-63
2023/10/27 11:18:46;;;;;;;7.40;4.88;;;12.30;99.90;;;;;;5066715;28;20087;-62
2023/10/27 11:21:20;;;;;;;7.93;5.00;;;12.30;99.90;;;;;;5066515;28;20060;-63
2023/10/27 11:23:50;;;;;;;6.53;4.68;;;12.40;99.90;;;;;;5060282;28;20037;-62
2023/10/27 11:26:18;;;;;;;5.30;4.00;;;12.40;99.90;;;;;;5049952;28;20075;-61
2023/10/27 11:28:45;;;;;;;7.03;4.32;;;12.40;99.90;;;;;;5037010;28;20562;-61
2023/10/27 11:31:23;;;;;;;6.53;4.28;;;12.40;99.90;;;;;;5063977;28;20068;-60
2023/10/27 11:34:05;;;;;;;6.22;4.15;;;12.40;99.90;;;;;;5063455;28;20047;-61
2023/10/27 11:36:36;;;;;;;5.78;4.00;;;12.40;99.90;;;;;;5062795;28;20040;-62
2023/10/27 11:39:20;;;;;;;8.38;5.10;;;12.40;99.90;;;;;;5066747;28;20091;-62
2023/10/27 11:41:51;;;;;;;6.88;5.07;;;12.40;99.90;;;;;;5065031;28;20286;-63
2023/10/27 11:44:17;;;;;;;6.57;4.70;;;12.40;99.90;;;;;;5065689;28;20063;-62
2023/10/27 11:46:50;;;;;;;6.10;4.95;;;12.40;99.90;;;;;;5046157;28;20510;-62
2023/10/27 11:49:17;;;;;;;5.60;4.20;;;12.40;99.90;;;;;;5064473;28;20067;-62
2023/10/27 11:51:44;;;;;;;7.65;5.15;;;12.40;99.90;;;;;;5065460;28;20048;-63
2023/10/27 11:54:09;;;;;;;6.70;4.03;;;12.40;99.90;;;;;;5068318;28;20056;-62
2023/10/27 11:56:35;;;;;;;5.28;4.05;;;12.40;99.90;;;;;;5064105;28;20108;-62
2023/10/27 11:59:01;;;;;;;6.10;4.63;;;12.40;99.90;;;;;;5062109;28;20115;-62
2023/10/27 12:01:27;;;;;;;6.68;4.93;;;12.40;99.90;;;;;;5064366;28;20048;-62
2023/10/27 12:03:52;;;;;;;7.07;4.60;;;12.40;99.90;;;;;;5030625;28;20120;-62
2023/10/27 12:06:18;;;;;;;7.53;5.00;;;12.40;99.90;;;;;;5057581;28;20048;-60
2023/10/27 12:08:44;;;;;;;6.57;4.47;;;12.40;99.90;;;;;;5061353;28;20028;-63
2023/10/27 12:11:10;;;;;;;6.97;4.63;;;12.40;99.90;;;;;;5058780;28;20044;-63
2023/10/27 12:13:36;;;;;;;7.03;4.88;;;12.40;99.90;;;;;;5064339;28;20448;-62
2023/10/27 12:16:02;;;;;;;6.80;5.15;;;12.40;99.90;;;;;;5063230;28;20130;-63
2023/10/27 12:18:28;;;;;;;5.88;4.35;;;12.40;99.90;;;;;;5059943;28;20052;-63
2023/10/27 12:20:54;;;;;;;7.65;4.90;;;12.40;99.90;;;;;;5063479;28;20124;-63
2023/10/27 12:23:20;;;;;;;7.97;5.25;;;12.40;99.90;;;;;;5031211;28;20036;-62
2023/10/27 12:25:46;;;;;;;6.72;4.68;;;12.40;99.90;;;;;;5045736;28;20044;-61
2023/10/27 12:28:12;;;;;;;6.65;4.80;;;12.40;99.90;;;;;;5065285;28;20044;-63
2023/10/27 12:30:38;;;;;;;7.65;5.03;;;12.40;99.90;;;;;;5063702;28;20060;-61
2023/10/27 12:33:04;;;;;;;5.10;3.97;;;12.40;99.90;;;;;;5067085;28;20040;-61
2023/10/27 12:35:31;;;;;;;7.53;5.13;;;12.40;99.90;;;;;;5066027;28;20120;-62
2023/10/27 12:37:57;;;;;;;5.85;4.38;;;12.40;99.90;;;;;;5064722;28;20056;-62
2023/10/27 12:40:24;;;;;;;7.35;5.43;;;12.40;99.90;;;;;;5066097;28;20115;-63
2023/10/27 12:42:50;;;;;;;7.45;4.95;;;12.40;99.90;;;;;;5065902;28;20072;-64
2023/10/27 12:45:16;;;;;;;6.90;4.82;;;12.40;99.90;;;;;;5041396;28;20558;-61
2023/10/27 12:47:44;;;;;;;6.68;5.78;;;12.40;99.90;;;;;;5061329;28;20615;-61
2023/10/27 12:50:10;;;;;;;5.80;4.32;;;12.40;99.90;;;;;;5066441;28;20080;-62
2023/10/27 12:52:40;;;;;;;6.70;5.20;;;12.40;99.90;;;;;;5060842;28;20041;-62
2023/10/27 12:55:07;;;;;;;7.18;4.97;;;12.40;99.90;;;;;;5065544;28;20033;-62
2023/10/27 12:57:34;;;;;;;7.15;4.60;;;12.40;99.90;;;;;;5061537;28;20127;-61
2023/10/27 13:00:00;;;;;;;8.18;5.97;;;12.40;99.90;;;;;;5063266;28;20617;-62
2023/10/27 13:02:26;;;;;;;10.10;5.43;;;12.50;99.90;;;;;;5064254;28;20048;-62
2023/10/27 13:04:55;;;;;;;6.05;4.70;;;12.40;99.90;;;;;;5066059;28;20109;-62
2023/10/27 13:07:21;;;;;;;8.20;5.72;;;12.40;99.90;;;;;;5065262;28;20506;-62
2023/10/27 13:09:47;;;;;;;9.38;6.20;;;12.40;99.90;;;;;;5064442;28;20041;-62
2023/10/27 13:12:12;;;;;;;7.20;5.53;;;12.40;99.90;;;;;;5065947;28;20041;-61
2023/10/27 13:14:41;;;;;;;6.95;4.82;;;12.40;99.90;;;;;;5066487;28;20051;-62
2023/10/27 13:17:07;;;;;;;7.40;5.60;;;12.50;99.90;;;;;;5055764;28;20091;-62
2023/10/27 13:19:36;;;;;;;8.95;6.15;;;12.40;99.90;;;;;;5061701;28;20051;-62
2023/10/27 13:22:02;;;;;;;9.13;6.05;;;12.40;99.90;;;;;;5064261;28;20066;-62
2023/10/27 13:24:28;;;;;;;7.30;5.85;;;12.40;99.90;;;;;;5065897;28;20079;-63
2023/10/27 13:26:54;;;;;;;8.02;6.10;;;12.40;99.90;;;;;;5067124;28;20072;-62
2023/10/27 13:29:20;;;;;;;6.82;4.68;;;12.40;99.90;;;;;;5066772;28;20064;-61
2023/10/27 13:31:47;;;;;;;7.95;6.22;;;12.40;99.90;;;;;;5047501;28;20480;-61
2023/10/27 13:34:13;;;;;;;8.63;6.05;;;12.40;99.90;;;;;;5066001;28;20139;-62
2023/10/27 13:36:43;;;;;;;8.32;5.60;;;12.40;99.90;;;;;;5050932;28;20045;-62
2023/10/27 13:39:09;;;;;;;8.43;6.03;;;12.40;99.90;;;;;;5067960;28;20058;-62
2023/10/27 13:41:36;;;;;;;8.68;6.28;;;12.40;99.90;;;;;;5071241;28;20037;-62
2023/10/27 13:44:05;;;;;;;7.18;5.72;;;12.40;99.90;;;;;;5068371;28;20044;-63
2023/10/27 13:46:35;;;;;;;7.05;5.68;;;12.40;99.90;;;;;;5068419;28;20182;-61
2023/10/27 13:49:13;;;;;;;7.70;5.70;;;12.40;99.90;;;;;;5070070;28;20043;-61
2023/10/27 13:51:39;;;;;;;7.65;4.97;;;12.40;99.90;;;;;;5062919;28;20043;-62
2023/10/27 13:54:11;;;;;;;7.45;5.20;;;12.40;99.90;;;;;;5065620;28;20502;-62